sensor_id;sensor_type;location;lat;lon;timestamp;temperature;humidity
64983;DHT22;62161;54.688;25.256;2022-09-14T00:00:47;11.73;87.77
64983;DHT22;62161;54.688;25.256;2022-09-14T00:03:13;11.81;87.27
64983;DHT22;62161;54.688;25.256;2022-09-14T00:05:38;11.85;87.01
64983;DHT22;62161;54.688;25.256;2022-09-14T00:08:04;11.81;87.38
64983;DHT22;62161;54.688;25.256;2022-09-14T00:10:29;11.81;87.12
64983;DHT22;62161;54.688;25.256;2022-09-14T00:12:55;11.80;86.99
64983;DHT22;62161;54.688;25.256;2022-09-14T00:15:20;11.74;87.83
64983;DHT22;62161;54.688;25.256;2022-09-14T00:17:46;11.74;87.50
64983;DHT22;62161;54.688;25.256;2022-09-14T00:20:11;11.77;87.35
64983;DHT22;62161;54.688;25.256;2022-09-14T00:22:37;11.80;86.60
64983;DHT22;62161;54.688;25.256;2022-09-14T00:25:02;11.75;86.88
64983;DHT22;62161;54.688;25.256;2022-09-14T00:27:28;11.78;87.43
64983;DHT22;62161;54.688;25.256;2022-09-14T00:29:53;11.81;86.93
64983;DHT22;62161;54.688;25.256;2022-09-14T00:32:19;11.81;87.23
64983;DHT22;62161;54.688;25.256;2022-09-14T00:34:44;11.75;87.76
64983;DHT22;62161;54.688;25.256;2022-09-14T00:37:10;11.73;87.83
64983;DHT22;62161;54.688;25.256;2022-09-14T00:39:35;11.67;88.56
64983;DHT22;62161;54.688;25.256;2022-09-14T00:42:03;11.62;88.20
64983;DHT22;62161;54.688;25.256;2022-09-14T00:46:57;11.46;88.85
64983;DHT22;62161;54.688;25.256;2022-09-14T00:49:30;11.39;89.17
64983;DHT22;62161;54.688;25.256;2022-09-14T00:52:17;11.29;89.47
64983;DHT22;62161;54.688;25.256;2022-09-14T00:54:49;11.20;89.82
64983;DHT22;62161;54.688;25.256;2022-09-14T00:57:17;11.14;90.04
64983;DHT22;62161;54.688;25.256;2022-09-14T00:59:43;11.06;90.07
64983;DHT22;62161;54.688;25.256;2022-09-14T01:02:11;11.06;90.39
64983;DHT22;62161;54.688;25.256;2022-09-14T01:04:39;11.06;90.66
64983;DHT22;62161;54.688;25.256;2022-09-14T01:18:17;11.08;89.77
64983;DHT22;62161;54.688;25.256;2022-09-14T01:21:08;11.19;89.33
64983;DHT22;62161;54.688;25.256;2022-09-14T01:26:33;11.08;89.19
64983;DHT22;62161;54.688;25.256;2022-09-14T01:29:17;11.06;89.41
64983;DHT22;62161;54.688;25.256;2022-09-14T01:34:23;11.12;89.33
64983;DHT22;62161;54.688;25.256;2022-09-14T01:36:56;11.20;88.53
64983;DHT22;62161;54.688;25.256;2022-09-14T01:39:23;11.32;87.91
64983;DHT22;62161;54.688;25.256;2022-09-14T01:41:49;11.43;87.76
64983;DHT22;62161;54.688;25.256;2022-09-14T01:44:24;11.40;87.86
64983;DHT22;62161;54.688;25.256;2022-09-14T01:46:59;11.39;88.55
64983;DHT22;62161;54.688;25.256;2022-09-14T01:49:48;11.40;88.67
64983;DHT22;62161;54.688;25.256;2022-09-14T01:52:20;11.42;88.40
64983;DHT22;62161;54.688;25.256;2022-09-14T01:54:48;11.46;88.23
64983;DHT22;62161;54.688;25.256;2022-09-14T01:57:38;11.50;87.84
64983;DHT22;62161;54.688;25.256;2022-09-14T02:00:08;11.54;87.30
64983;DHT22;62161;54.688;25.256;2022-09-14T02:02:40;11.52;87.26
64983;DHT22;62161;54.688;25.256;2022-09-14T02:05:17;11.64;86.28
64983;DHT22;62161;54.688;25.256;2022-09-14T02:07:43;11.63;86.63
64983;DHT22;62161;54.688;25.256;2022-09-14T02:10:11;11.73;85.42
64983;DHT22;62161;54.688;25.256;2022-09-14T02:12:38;11.70;86.03
64983;DHT22;62161;54.688;25.256;2022-09-14T02:15:06;11.74;85.80
64983;DHT22;62161;54.688;25.256;2022-09-14T02:17:31;11.67;86.42
64983;DHT22;62161;54.688;25.256;2022-09-14T02:20:02;11.67;87.13
64983;DHT22;62161;54.688;25.256;2022-09-14T02:22:29;11.69;87.57
64983;DHT22;62161;54.688;25.256;2022-09-14T02:24:54;11.67;87.23
64983;DHT22;62161;54.688;25.256;2022-09-14T02:27:20;11.66;87.63
64983;DHT22;62161;54.688;25.256;2022-09-14T02:29:46;11.66;87.68
64983;DHT22;62161;54.688;25.256;2022-09-14T02:32:32;11.69;87.52
64983;DHT22;62161;54.688;25.256;2022-09-14T02:40:30;11.64;88.52
64983;DHT22;62161;54.688;25.256;2022-09-14T02:45:38;11.59;89.00
64983;DHT22;62161;54.688;25.256;2022-09-14T02:48:10;11.62;88.92
64983;DHT22;62161;54.688;25.256;2022-09-14T02:50:57;11.59;89.11
64983;DHT22;62161;54.688;25.256;2022-09-14T02:53:46;11.56;89.61
64983;DHT22;62161;54.688;25.256;2022-09-14T02:56:15;11.53;90.21
64983;DHT22;62161;54.688;25.256;2022-09-14T02:58:43;11.50;89.99
64983;DHT22;62161;54.688;25.256;2022-09-14T03:01:14;11.43;90.13
64983;DHT22;62161;54.688;25.256;2022-09-14T03:03:39;11.49;90.53
64983;DHT22;62161;54.688;25.256;2022-09-14T03:06:05;11.42;91.35
64983;DHT22;62161;54.688;25.256;2022-09-14T03:08:30;11.49;91.28
64983;DHT22;62161;54.688;25.256;2022-09-14T03:10:56;11.52;91.18
64983;DHT22;62161;54.688;25.256;2022-09-14T03:13:22;11.37;92.30
64983;DHT22;62161;54.688;25.256;2022-09-14T03:15:47;11.29;92.57
64983;DHT22;62161;54.688;25.256;2022-09-14T03:18:13;11.27;92.43
64983;DHT22;62161;54.688;25.256;2022-09-14T03:20:38;10.96;94.18
64983;DHT22;62161;54.688;25.256;2022-09-14T03:23:04;10.85;94.91
64983;DHT22;62161;54.688;25.256;2022-09-14T03:25:38;10.87;95.52
64983;DHT22;62161;54.688;25.256;2022-09-14T03:28:05;10.89;95.15
64983;DHT22;62161;54.688;25.256;2022-09-14T03:30:30;10.91;95.53
64983;DHT22;62161;54.688;25.256;2022-09-14T03:32:59;10.96;95.22
64983;DHT22;62161;54.688;25.256;2022-09-14T03:35:27;11.06;94.70
64983;DHT22;62161;54.688;25.256;2022-09-14T03:37:54;11.06;94.79
64983;DHT22;62161;54.688;25.256;2022-09-14T03:40:20;10.98;95.47
64983;DHT22;62161;54.688;25.256;2022-09-14T03:42:48;11.04;95.26
64983;DHT22;62161;54.688;25.256;2022-09-14T03:45:15;11.05;95.17
64983;DHT22;62161;54.688;25.256;2022-09-14T03:47:41;11.11;95.22
64983;DHT22;62161;54.688;25.256;2022-09-14T03:50:09;11.05;94.88
64983;DHT22;62161;54.688;25.256;2022-09-14T03:52:35;11.06;94.88
64983;DHT22;62161;54.688;25.256;2022-09-14T03:55:02;11.12;94.88
64983;DHT22;62161;54.688;25.256;2022-09-14T03:57:27;11.09;94.96
64983;DHT22;62161;54.688;25.256;2022-09-14T03:59:53;11.12;95.05
64983;DHT22;62161;54.688;25.256;2022-09-14T04:02:18;11.14;94.96
64983;DHT22;62161;54.688;25.256;2022-09-14T04:04:44;11.16;94.94
64983;DHT22;62161;54.688;25.256;2022-09-14T04:07:15;11.19;94.67
64983;DHT22;62161;54.688;25.256;2022-09-14T04:09:41;11.16;94.60
64983;DHT22;62161;54.688;25.256;2022-09-14T04:12:07;11.14;94.65
64983;DHT22;62161;54.688;25.256;2022-09-14T04:14:33;11.08;94.99
64983;DHT22;62161;54.688;25.256;2022-09-14T04:16:58;11.08;95.01
64983;DHT22;62161;54.688;25.256;2022-09-14T04:19:24;11.08;95.27
64983;DHT22;62161;54.688;25.256;2022-09-14T04:21:49;11.11;95.24
64983;DHT22;62161;54.688;25.256;2022-09-14T04:24:15;11.12;94.91
64983;DHT22;62161;54.688;25.256;2022-09-14T04:26:41;11.06;95.31
64983;DHT22;62161;54.688;25.256;2022-09-14T04:29:06;11.08;95.19
64983;DHT22;62161;54.688;25.256;2022-09-14T04:31:33;11.14;95.21
64983;DHT22;62161;54.688;25.256;2022-09-14T04:33:58;11.15;95.16
64983;DHT22;62161;54.688;25.256;2022-09-14T04:36:26;11.16;95.33
64983;DHT22;62161;54.688;25.256;2022-09-14T04:38:54;11.15;95.53
64983;DHT22;62161;54.688;25.256;2022-09-14T04:41:21;11.18;95.47
64983;DHT22;62161;54.688;25.256;2022-09-14T04:43:48;11.22;95.11
64983;DHT22;62161;54.688;25.256;2022-09-14T04:46:25;11.35;93.89
64983;DHT22;62161;54.688;25.256;2022-09-14T04:48:51;11.33;94.16
64983;DHT22;62161;54.688;25.256;2022-09-14T04:51:19;11.32;94.48
64983;DHT22;62161;54.688;25.256;2022-09-14T04:53:47;11.35;94.82
64983;DHT22;62161;54.688;25.256;2022-09-14T04:56:14;11.40;94.00
64983;DHT22;62161;54.688;25.256;2022-09-14T04:58:47;11.40;94.31
64983;DHT22;62161;54.688;25.256;2022-09-14T05:01:15;11.40;93.96
64983;DHT22;62161;54.688;25.256;2022-09-14T05:03:42;11.42;93.90
64983;DHT22;62161;54.688;25.256;2022-09-14T05:06:10;11.42;94.23
64983;DHT22;62161;54.688;25.256;2022-09-14T05:08:36;11.46;93.80
64983;DHT22;62161;54.688;25.256;2022-09-14T05:11:07;11.54;93.22
64983;DHT22;62161;54.688;25.256;2022-09-14T05:13:33;11.53;92.56
64983;DHT22;62161;54.688;25.256;2022-09-14T05:16:12;11.49;92.71
64983;DHT22;62161;54.688;25.256;2022-09-14T05:18:38;11.46;93.25
64983;DHT22;62161;54.688;25.256;2022-09-14T05:21:05;11.46;93.33
64983;DHT22;62161;54.688;25.256;2022-09-14T05:23:31;11.50;93.56
64983;DHT22;62161;54.688;25.256;2022-09-14T05:25:57;11.50;93.19
64983;DHT22;62161;54.688;25.256;2022-09-14T05:28:23;11.49;93.77
64983;DHT22;62161;54.688;25.256;2022-09-14T05:30:49;11.49;93.89
64983;DHT22;62161;54.688;25.256;2022-09-14T05:33:14;11.54;93.90
64983;DHT22;62161;54.688;25.256;2022-09-14T05:35:40;11.63;93.71
64983;DHT22;62161;54.688;25.256;2022-09-14T05:38:05;11.66;93.86
64983;DHT22;62161;54.688;25.256;2022-09-14T05:40:31;11.69;93.92
64983;DHT22;62161;54.688;25.256;2022-09-14T05:42:56;11.75;93.31
64983;DHT22;62161;54.688;25.256;2022-09-14T05:45:21;11.73;93.60
64983;DHT22;62161;54.688;25.256;2022-09-14T05:47:47;11.75;93.67
64983;DHT22;62161;54.688;25.256;2022-09-14T05:50:12;11.83;93.80
64983;DHT22;62161;54.688;25.256;2022-09-14T05:52:39;11.91;92.78
64983;DHT22;62161;54.688;25.256;2022-09-14T05:55:04;11.98;92.49
64983;DHT22;62161;54.688;25.256;2022-09-14T05:57:30;11.98;92.24
64983;DHT22;62161;54.688;25.256;2022-09-14T05:59:55;11.98;92.51
64983;DHT22;62161;54.688;25.256;2022-09-14T06:02:20;12.01;92.62
64983;DHT22;62161;54.688;25.256;2022-09-14T06:04:46;12.01;93.03
64983;DHT22;62161;54.688;25.256;2022-09-14T06:07:11;12.02;93.12
64983;DHT22;62161;54.688;25.256;2022-09-14T06:09:36;12.12;92.83
64983;DHT22;62161;54.688;25.256;2022-09-14T06:12:02;12.18;92.93
64983;DHT22;62161;54.688;25.256;2022-09-14T06:14:28;12.18;92.72
64983;DHT22;62161;54.688;25.256;2022-09-14T06:16:53;12.20;92.88
64983;DHT22;62161;54.688;25.256;2022-09-14T06:19:18;12.24;92.56
64983;DHT22;62161;54.688;25.256;2022-09-14T06:21:44;12.31;91.78
64983;DHT22;62161;54.688;25.256;2022-09-14T06:24:10;12.32;91.61
64983;DHT22;62161;54.688;25.256;2022-09-14T06:26:39;12.32;92.13
64983;DHT22;62161;54.688;25.256;2022-09-14T06:29:04;12.33;91.52
64983;DHT22;62161;54.688;25.256;2022-09-14T06:31:30;12.42;91.72
64983;DHT22;62161;54.688;25.256;2022-09-14T06:33:55;12.64;91.20
64983;DHT22;62161;54.688;25.256;2022-09-14T06:36:22;12.73;90.47
64983;DHT22;62161;54.688;25.256;2022-09-14T06:38:48;12.77;90.42
64983;DHT22;62161;54.688;25.256;2022-09-14T06:41:17;12.76;90.58
64983;DHT22;62161;54.688;25.256;2022-09-14T06:43:43;12.81;90.62
64983;DHT22;62161;54.688;25.256;2022-09-14T06:46:18;13.07;89.83
64983;DHT22;62161;54.688;25.256;2022-09-14T06:48:49;13.07;89.10
64983;DHT22;62161;54.688;25.256;2022-09-14T06:51:29;13.15;88.80
64983;DHT22;62161;54.688;25.256;2022-09-14T06:53:56;13.54;87.21
64983;DHT22;62161;54.688;25.256;2022-09-14T06:56:24;13.85;87.39
64983;DHT22;62161;54.688;25.256;2022-09-14T06:58:50;14.20;84.74
64983;DHT22;62161;54.688;25.256;2022-09-14T07:01:17;14.30;85.27
64983;DHT22;62161;54.688;25.256;2022-09-14T07:03:44;14.40;84.06
64983;DHT22;62161;54.688;25.256;2022-09-14T07:06:17;14.28;85.60
64983;DHT22;62161;54.688;25.256;2022-09-14T07:08:44;14.06;85.95
64983;DHT22;62161;54.688;25.256;2022-09-14T07:11:10;14.16;84.73
64983;DHT22;62161;54.688;25.256;2022-09-14T07:13:36;14.28;85.63
64983;DHT22;62161;54.688;25.256;2022-09-14T07:16:02;14.30;84.15
64983;DHT22;62161;54.688;25.256;2022-09-14T07:18:29;14.25;85.97
64983;DHT22;62161;54.688;25.256;2022-09-14T07:21:10;14.24;86.08
64983;DHT22;62161;54.688;25.256;2022-09-14T07:23:39;14.35;84.18
64983;DHT22;62161;54.688;25.256;2022-09-14T07:26:16;14.21;85.66
64983;DHT22;62161;54.688;25.256;2022-09-14T07:28:43;14.10;85.79
64983;DHT22;62161;54.688;25.256;2022-09-14T07:31:22;14.12;85.52
64983;DHT22;62161;54.688;25.256;2022-09-14T07:33:49;14.02;86.73
64983;DHT22;62161;54.688;25.256;2022-09-14T07:36:16;14.04;86.08
64983;DHT22;62161;54.688;25.256;2022-09-14T07:38:41;13.96;86.95
64983;DHT22;62161;54.688;25.256;2022-09-14T07:41:07;13.93;87.32
64983;DHT22;62161;54.688;25.256;2022-09-14T07:43:32;14.09;86.87
64983;DHT22;62161;54.688;25.256;2022-09-14T07:46:03;14.16;86.46
64983;DHT22;62161;54.688;25.256;2022-09-14T07:48:29;14.25;85.77
64983;DHT22;62161;54.688;25.256;2022-09-14T07:51:04;14.25;86.48
64983;DHT22;62161;54.688;25.256;2022-09-14T07:53:30;14.25;86.89
64983;DHT22;62161;54.688;25.256;2022-09-14T07:56:00;14.31;86.16
64983;DHT22;62161;54.688;25.256;2022-09-14T07:58:27;14.07;86.97
64983;DHT22;62161;54.688;25.256;2022-09-14T08:01:00;13.87;86.88
64983;DHT22;62161;54.688;25.256;2022-09-14T08:03:28;13.79;87.55
64983;DHT22;62161;54.688;25.256;2022-09-14T08:06:04;13.75;88.52
64983;DHT22;62161;54.688;25.256;2022-09-14T08:08:35;13.79;88.23
64983;DHT22;62161;54.688;25.256;2022-09-14T08:11:18;13.83;88.03
64983;DHT22;62161;54.688;25.256;2022-09-14T08:13:47;13.83;88.13
64983;DHT22;62161;54.688;25.256;2022-09-14T08:16:13;13.91;87.93
64983;DHT22;62161;54.688;25.256;2022-09-14T08:18:39;13.93;87.96
64983;DHT22;62161;54.688;25.256;2022-09-14T08:21:06;14.02;88.38
64983;DHT22;62161;54.688;25.256;2022-09-14T08:23:32;14.20;86.47
64983;DHT22;62161;54.688;25.256;2022-09-14T08:26:06;14.34;86.96
64983;DHT22;62161;54.688;25.256;2022-09-14T08:28:32;14.57;85.43
64983;DHT22;62161;54.688;25.256;2022-09-14T08:31:06;14.62;85.28
64983;DHT22;62161;54.688;25.256;2022-09-14T08:33:33;15.19;84.95
64983;DHT22;62161;54.688;25.256;2022-09-14T08:35:59;17.81;74.54
64983;DHT22;62161;54.688;25.256;2022-09-14T08:38:25;19.52;69.97
64983;DHT22;62161;54.688;25.256;2022-09-14T08:40:51;19.85;68.71
64983;DHT22;62161;54.688;25.256;2022-09-14T08:43:17;20.08;67.08
64983;DHT22;62161;54.688;25.256;2022-09-14T08:45:44;21.12;62.78
64983;DHT22;62161;54.688;25.256;2022-09-14T08:48:27;20.31;64.92
64983;DHT22;62161;54.688;25.256;2022-09-14T08:50:54;19.24;67.63
64983;DHT22;62161;54.688;25.256;2022-09-14T08:53:21;17.69;71.74
64983;DHT22;62161;54.688;25.256;2022-09-14T08:55:55;17.42;74.05
64983;DHT22;62161;54.688;25.256;2022-09-14T09:05:36;18.21;68.57
64983;DHT22;62161;54.688;25.256;2022-09-14T09:09:58;18.34;68.30
64983;DHT22;62161;54.688;25.256;2022-09-14T09:12:36;18.24;70.37
64983;DHT22;62161;54.688;25.256;2022-09-14T09:15:18;18.27;68.69
64983;DHT22;62161;54.688;25.256;2022-09-14T09:17:47;18.37;69.37
64983;DHT22;62161;54.688;25.256;2022-09-14T09:20:23;18.51;67.46
64983;DHT22;62161;54.688;25.256;2022-09-14T09:23:14;18.51;67.91
64983;DHT22;62161;54.688;25.256;2022-09-14T09:28:09;17.87;70.05
64983;DHT22;62161;54.688;25.256;2022-09-14T09:30:36;17.67;70.35
64983;DHT22;62161;54.688;25.256;2022-09-14T09:33:02;17.66;72.72
64983;DHT22;62161;54.688;25.256;2022-09-14T09:35:28;18.02;71.41
64983;DHT22;62161;54.688;25.256;2022-09-14T09:37:55;18.19;72.26
64983;DHT22;62161;54.688;25.256;2022-09-14T09:40:34;18.28;69.66
64983;DHT22;62161;54.688;25.256;2022-09-14T09:43:05;18.08;70.11
64983;DHT22;62161;54.688;25.256;2022-09-14T09:45:59;18.10;68.13
64983;DHT22;62161;54.688;25.256;2022-09-14T09:53:33;17.57;72.60
64983;DHT22;62161;54.688;25.256;2022-09-14T09:55:58;17.93;71.29
64983;DHT22;62161;54.688;25.256;2022-09-14T09:58:35;18.02;71.22
64983;DHT22;62161;54.688;25.256;2022-09-14T10:01:03;18.34;71.39
64983;DHT22;62161;54.688;25.256;2022-09-14T10:03:34;18.42;68.80
64983;DHT22;62161;54.688;25.256;2022-09-14T10:06:02;18.25;68.80
64983;DHT22;62161;54.688;25.256;2022-09-14T10:08:30;18.08;70.97
64983;DHT22;62161;54.688;25.256;2022-09-14T10:11:02;18.01;71.00
64983;DHT22;62161;54.688;25.256;2022-09-14T10:13:31;17.89;69.81
64983;DHT22;62161;54.688;25.256;2022-09-14T10:16:15;17.70;71.06
64983;DHT22;62161;54.688;25.256;2022-09-14T10:18:51;17.56;71.73
64983;DHT22;62161;54.688;25.256;2022-09-14T10:21:22;17.59;72.28
64983;DHT22;62161;54.688;25.256;2022-09-14T10:24:17;17.71;70.51
64983;DHT22;62161;54.688;25.256;2022-09-14T10:26:45;17.53;71.57
64983;DHT22;62161;54.688;25.256;2022-09-14T10:29:25;17.45;73.68
64983;DHT22;62161;54.688;25.256;2022-09-14T10:31:57;17.54;72.03
64983;DHT22;62161;54.688;25.256;2022-09-14T10:34:24;17.60;71.14
64983;DHT22;62161;54.688;25.256;2022-09-14T10:37:03;17.91;70.72
64983;DHT22;62161;54.688;25.256;2022-09-14T10:39:51;18.28;70.14
64983;DHT22;62161;54.688;25.256;2022-09-14T10:42:32;18.53;68.27
64983;DHT22;62161;54.688;25.256;2022-09-14T10:53:30;18.51;69.97
64983;DHT22;62161;54.688;25.256;2022-09-14T10:56:05;18.63;70.25
64983;DHT22;62161;54.688;25.256;2022-09-14T11:13:46;18.24;69.59
64983;DHT22;62161;54.688;25.256;2022-09-14T11:18:43;18.41;69.07
64983;DHT22;62161;54.688;25.256;2022-09-14T11:24:29;18.47;69.26
64983;DHT22;62161;54.688;25.256;2022-09-14T11:27:13;18.42;68.50
64983;DHT22;62161;54.688;25.256;2022-09-14T11:29:44;18.39;68.78
64983;DHT22;62161;54.688;25.256;2022-09-14T11:32:22;18.53;68.35
64983;DHT22;62161;54.688;25.256;2022-09-14T11:35:00;18.53;68.46
64983;DHT22;62161;54.688;25.256;2022-09-14T11:37:40;18.59;67.34
64983;DHT22;62161;54.688;25.256;2022-09-14T11:45:33;18.89;66.32
64983;DHT22;62161;54.688;25.256;2022-09-14T11:48:05;19.10;66.23
64983;DHT22;62161;54.688;25.256;2022-09-14T11:50:32;18.93;66.69
64983;DHT22;62161;54.688;25.256;2022-09-14T11:53:08;18.72;66.95
64983;DHT22;62161;54.688;25.256;2022-09-14T11:55:34;18.42;67.85
64983;DHT22;62161;54.688;25.256;2022-09-14T11:58:04;18.25;68.34
64983;DHT22;62161;54.688;25.256;2022-09-14T12:00:58;18.00;69.04
64983;DHT22;62161;54.688;25.256;2022-09-14T12:03:53;17.96;70.29
64983;DHT22;62161;54.688;25.256;2022-09-14T12:11:49;17.74;71.11
64983;DHT22;62161;54.688;25.256;2022-09-14T12:14:24;17.52;73.21
64983;DHT22;62161;54.688;25.256;2022-09-14T12:19:31;17.45;72.90
64983;DHT22;62161;54.688;25.256;2022-09-14T12:24:57;17.52;72.71
64983;DHT22;62161;54.688;25.256;2022-09-14T12:27:23;17.53;72.15
64983;DHT22;62161;54.688;25.256;2022-09-14T12:29:48;17.50;73.91
64983;DHT22;62161;54.688;25.256;2022-09-14T12:37:54;18.34;69.40
64983;DHT22;62161;54.688;25.256;2022-09-14T12:42:44;18.41;69.92
64983;DHT22;62161;54.688;25.256;2022-09-14T12:45:49;18.49;70.56
64983;DHT22;62161;54.688;25.256;2022-09-14T12:51:48;18.39;70.34
64983;DHT22;62161;54.688;25.256;2022-09-14T13:04:38;17.73;71.16
64983;DHT22;62161;54.688;25.256;2022-09-14T13:07:11;17.70;71.65
64983;DHT22;62161;54.688;25.256;2022-09-14T13:09:37;17.73;71.56
64983;DHT22;62161;54.688;25.256;2022-09-14T13:12:09;17.81;71.88
64983;DHT22;62161;54.688;25.256;2022-09-14T13:14:57;17.94;72.37
64983;DHT22;62161;54.688;25.256;2022-09-14T13:17:24;18.00;71.73
64983;DHT22;62161;54.688;25.256;2022-09-14T13:20:00;18.01;71.44
64983;DHT22;62161;54.688;25.256;2022-09-14T13:22:30;18.05;70.44
64983;DHT22;62161;54.688;25.256;2022-09-14T13:24:57;18.02;70.63
64983;DHT22;62161;54.688;25.256;2022-09-14T13:27:34;17.98;71.11
64983;DHT22;62161;54.688;25.256;2022-09-14T13:30:16;17.89;71.72
64983;DHT22;62161;54.688;25.256;2022-09-14T13:32:45;17.87;72.17
64983;DHT22;62161;54.688;25.256;2022-09-14T13:35:42;17.73;72.86
64983;DHT22;62161;54.688;25.256;2022-09-14T13:38:37;17.60;73.49
64983;DHT22;62161;54.688;25.256;2022-09-14T13:41:09;17.46;73.85
64983;DHT22;62161;54.688;25.256;2022-09-14T13:43:35;17.47;73.55
64983;DHT22;62161;54.688;25.256;2022-09-14T13:46:01;17.56;73.59
64983;DHT22;62161;54.688;25.256;2022-09-14T13:48:28;17.66;73.50
64983;DHT22;62161;54.688;25.256;2022-09-14T13:50:54;17.97;71.98
64983;DHT22;62161;54.688;25.256;2022-09-14T13:53:44;18.01;72.29
64983;DHT22;62161;54.688;25.256;2022-09-14T13:56:31;17.89;71.71
64983;DHT22;62161;54.688;25.256;2022-09-14T13:59:18;17.73;73.18
64983;DHT22;62161;54.688;25.256;2022-09-14T14:01:55;17.57;74.61
64983;DHT22;62161;54.688;25.256;2022-09-14T14:04:25;17.46;74.62
64983;DHT22;62161;54.688;25.256;2022-09-14T14:09:46;17.36;74.47
64983;DHT22;62161;54.688;25.256;2022-09-14T14:12:33;17.26;75.75
64983;DHT22;62161;54.688;25.256;2022-09-14T14:15:04;17.25;73.63
64983;DHT22;62161;54.688;25.256;2022-09-14T14:17:36;17.22;73.98
64983;DHT22;62161;54.688;25.256;2022-09-14T14:20:35;17.39;73.89
64983;DHT22;62161;54.688;25.256;2022-09-14T14:25:37;17.81;71.14
64983;DHT22;62161;54.688;25.256;2022-09-14T14:28:15;17.80;71.95
64983;DHT22;62161;54.688;25.256;2022-09-14T14:30:41;17.70;71.36
64983;DHT22;62161;54.688;25.256;2022-09-14T14:33:15;17.59;71.27
64983;DHT22;62161;54.688;25.256;2022-09-14T14:35:48;17.43;72.55
64983;DHT22;62161;54.688;25.256;2022-09-14T14:38:16;17.49;71.65
64983;DHT22;62161;54.688;25.256;2022-09-14T14:40:43;17.54;71.84
64983;DHT22;62161;54.688;25.256;2022-09-14T14:43:16;17.56;71.30
64983;DHT22;62161;54.688;25.256;2022-09-14T14:45:42;17.50;70.52
64983;DHT22;62161;54.688;25.256;2022-09-14T14:48:09;17.57;70.54
64983;DHT22;62161;54.688;25.256;2022-09-14T14:50:36;17.60;69.98
64983;DHT22;62161;54.688;25.256;2022-09-14T14:53:02;17.56;69.84
64983;DHT22;62161;54.688;25.256;2022-09-14T14:55:29;17.45;69.89
64983;DHT22;62161;54.688;25.256;2022-09-14T14:58:00;17.46;69.23
64983;DHT22;62161;54.688;25.256;2022-09-14T15:00:29;17.45;69.49
64983;DHT22;62161;54.688;25.256;2022-09-14T15:02:56;17.35;69.76
64983;DHT22;62161;54.688;25.256;2022-09-14T15:05:22;17.31;69.74
64983;DHT22;62161;54.688;25.256;2022-09-14T15:07:47;17.16;69.84
64983;DHT22;62161;54.688;25.256;2022-09-14T15:10:17;17.18;70.37
64983;DHT22;62161;54.688;25.256;2022-09-14T15:12:43;17.12;70.98
64983;DHT22;62161;54.688;25.256;2022-09-14T15:15:20;17.05;71.07
64983;DHT22;62161;54.688;25.256;2022-09-14T15:17:47;16.92;71.42
64983;DHT22;62161;54.688;25.256;2022-09-14T15:20:12;16.92;71.66
64983;DHT22;62161;54.688;25.256;2022-09-14T15:22:38;16.83;72.58
64983;DHT22;62161;54.688;25.256;2022-09-14T15:25:08;16.80;73.12
64983;DHT22;62161;54.688;25.256;2022-09-14T15:27:34;16.68;73.87
64983;DHT22;62161;54.688;25.256;2022-09-14T15:29:59;16.71;73.51
64983;DHT22;62161;54.688;25.256;2022-09-14T15:32:28;16.73;73.65
64983;DHT22;62161;54.688;25.256;2022-09-14T15:34:53;16.67;73.97
64983;DHT22;62161;54.688;25.256;2022-09-14T15:37:19;16.61;74.57
64983;DHT22;62161;54.688;25.256;2022-09-14T15:39:44;16.54;74.67
64983;DHT22;62161;54.688;25.256;2022-09-14T15:42:12;16.46;74.97
64983;DHT22;62161;54.688;25.256;2022-09-14T15:44:37;16.34;75.58
64983;DHT22;62161;54.688;25.256;2022-09-14T15:47:03;16.32;75.74
64983;DHT22;62161;54.688;25.256;2022-09-14T15:49:28;16.26;75.93
64983;DHT22;62161;54.688;25.256;2022-09-14T15:51:55;16.19;75.92
64983;DHT22;62161;54.688;25.256;2022-09-14T15:54:24;16.17;74.70
64983;DHT22;62161;54.688;25.256;2022-09-14T15:56:51;16.15;75.50
64983;DHT22;62161;54.688;25.256;2022-09-14T15:59:18;16.15;75.00
64983;DHT22;62161;54.688;25.256;2022-09-14T16:01:44;16.06;74.47
64983;DHT22;62161;54.688;25.256;2022-09-14T16:04:10;15.99;75.41
64983;DHT22;62161;54.688;25.256;2022-09-14T16:06:35;15.98;75.40
64983;DHT22;62161;54.688;25.256;2022-09-14T16:09:03;15.94;75.50
64983;DHT22;62161;54.688;25.256;2022-09-14T16:11:28;15.88;75.87
64983;DHT22;62161;54.688;25.256;2022-09-14T16:13:54;15.79;76.35
64983;DHT22;62161;54.688;25.256;2022-09-14T16:16:20;15.88;75.89
64983;DHT22;62161;54.688;25.256;2022-09-14T16:18:46;15.81;75.75
64983;DHT22;62161;54.688;25.256;2022-09-14T16:21:21;15.87;75.91
64983;DHT22;62161;54.688;25.256;2022-09-14T16:23:49;15.84;76.67
64983;DHT22;62161;54.688;25.256;2022-09-14T16:26:20;15.89;75.81
64983;DHT22;62161;54.688;25.256;2022-09-14T16:28:47;15.91;75.69
64983;DHT22;62161;54.688;25.256;2022-09-14T16:31:15;15.84;75.99
64983;DHT22;62161;54.688;25.256;2022-09-14T16:33:43;15.79;75.89
64983;DHT22;62161;54.688;25.256;2022-09-14T16:36:11;15.79;76.51
64983;DHT22;62161;54.688;25.256;2022-09-14T16:38:38;15.77;76.68
64983;DHT22;62161;54.688;25.256;2022-09-14T16:41:04;15.75;76.74
64983;DHT22;62161;54.688;25.256;2022-09-14T16:43:31;15.74;76.88
64983;DHT22;62161;54.688;25.256;2022-09-14T16:48:33;15.69;77.61
64983;DHT22;62161;54.688;25.256;2022-09-14T16:50:59;15.64;77.60
64983;DHT22;62161;54.688;25.256;2022-09-14T16:53:28;15.64;78.01
64983;DHT22;62161;54.688;25.256;2022-09-14T16:56:11;15.62;78.33
64983;DHT22;62161;54.688;25.256;2022-09-14T16:58:37;15.67;79.01
64983;DHT22;62161;54.688;25.256;2022-09-14T17:01:06;15.64;79.05
64983;DHT22;62161;54.688;25.256;2022-09-14T17:03:34;15.57;77.73
64983;DHT22;62161;54.688;25.256;2022-09-14T17:06:04;15.61;78.06
64983;DHT22;62161;54.688;25.256;2022-09-14T17:08:31;15.61;77.84
64983;DHT22;62161;54.688;25.256;2022-09-14T17:10:57;15.62;78.06
64983;DHT22;62161;54.688;25.256;2022-09-14T17:13:23;15.57;78.35
64983;DHT22;62161;54.688;25.256;2022-09-14T17:15:49;15.54;79.01
64983;DHT22;62161;54.688;25.256;2022-09-14T17:18:15;15.44;79.62
64983;DHT22;62161;54.688;25.256;2022-09-14T17:20:40;15.37;81.00
64983;DHT22;62161;54.688;25.256;2022-09-14T17:23:15;15.37;80.95
64983;DHT22;62161;54.688;25.256;2022-09-14T17:25:41;15.40;79.96
64983;DHT22;62161;54.688;25.256;2022-09-14T17:28:06;15.46;80.45
64983;DHT22;62161;54.688;25.256;2022-09-14T17:30:32;15.36;81.55